Time;durP1;ratioP1;P1;durP2;ratioP2;P2;SDS_P1;SDS_P2;PMS_P1;PMS_P2;Temp;Humidity;BMP_temperature;BMP_pressure;BME280_temperature;BME280_humidity;BME280_pressure;Samples;Min_cycle;Max_cycle;Signal;HPM_P1;HPM_P2
2023/03/20 00:00:44;;;;;;;0.40;0.40;;;;;;;10.11;100.00;100579.69;4980000;28;20026;-79
2023/03/20 00:03:10;;;;;;;0.40;0.40;;;;;;;10.13;100.00;100580.38;4997946;28;20483;-79
2023/03/20 00:05:36;;;;;;;0.30;0.30;;;;;;;10.12;100.00;100585.91;4980095;28;20496;-79
2023/03/20 00:08:02;;;;;;;0.40;0.40;;;;;;;10.15;100.00;100592.78;4964467;28;20026;-79
2023/03/20 00:10:46;;;;;;;0.50;0.50;;;;;;;10.12;100.00;100584.03;4980619;28;20033;-79
2023/03/20 00:13:22;;;;;;;0.40;0.40;;;;;;;10.12;100.00;100588.59;4964097;28;20088;-78
2023/03/20 00:15:48;;;;;;;0.32;0.32;;;;;;;10.07;100.00;100581.06;4996178;28;20034;-79
2023/03/20 00:18:17;;;;;;;0.30;0.30;;;;;;;10.05;100.00;100582.25;4979936;28;20080;-78
2023/03/20 00:20:45;;;;;;;0.40;0.40;;;;;;;10.08;100.00;100582.75;4964498;28;20049;-78
2023/03/20 00:23:11;;;;;;;0.38;0.38;;;;;;;10.09;100.00;100592.47;4979318;28;20393;-79
2023/03/20 00:25:38;;;;;;;0.40;0.40;;;;;;;10.07;100.00;100574.84;4996438;28;20027;-78
2023/03/20 00:28:41;;;;;;;0.30;0.30;;;;;;;10.12;100.00;100573.28;4980132;28;20034;-78
2023/03/20 00:31:37;;;;;;;0.40;0.40;;;;;;;10.13;100.00;100575.00;4996359;28;20062;-78
2023/03/20 00:34:12;;;;;;;0.40;0.40;;;;;;;10.15;100.00;100582.84;4963049;28;20060;-79
2023/03/20 00:36:38;;;;;;;0.40;0.40;;;;;;;10.08;100.00;100569.31;4948326;28;20038;-79
2023/03/20 00:39:04;;;;;;;0.40;0.40;;;;;;;10.12;100.00;100567.91;4995288;28;20038;-79
2023/03/20 00:41:53;;;;;;;0.40;0.40;;;;;;;10.05;100.00;100566.13;4995792;28;20026;-78
2023/03/20 00:44:38;;;;;;;0.30;0.30;;;;;;;10.00;100.00;100555.94;4963038;28;20038;-78
2023/03/20 00:47:30;;;;;;;0.40;0.40;;;;;;;10.15;100.00;100576.66;4963863;28;20097;-78
2023/03/20 00:49:56;;;;;;;0.40;0.40;;;;;;;10.14;100.00;100575.81;4991379;28;20054;-80
2023/03/20 00:52:23;;;;;;;0.40;0.40;;;;;;;10.14;100.00;100573.13;4995481;28;20036;-79
2023/03/20 00:54:48;;;;;;;0.40;0.40;;;;;;;10.14;100.00;100570.44;4978556;28;20045;-78
2023/03/20 00:57:24;;;;;;;0.40;0.40;;;;;;;10.17;100.00;100574.63;4963778;28;20038;-78
2023/03/20 01:00:26;;;;;;;0.40;0.40;;;;;;;10.15;100.00;100576.66;4995811;28;20042;-78
2023/03/20 01:02:56;;;;;;;0.32;0.32;;;;;;;10.17;100.00;100582.69;4973000;28;20480;-78
2023/03/20 01:05:23;;;;;;;0.40;0.40;;;;;;;10.16;100.00;100587.22;4994756;28;20030;-79
2023/03/20 01:07:49;;;;;;;0.40;0.40;;;;;;;10.14;100.00;100581.19;4995312;28;20061;-79
2023/03/20 01:10:16;;;;;;;0.40;0.40;;;;;;;10.13;100.00;100577.69;4995582;28;20038;-78
2023/03/20 01:12:42;;;;;;;0.40;0.40;;;;;;;10.08;100.00;100573.81;4994541;28;20030;-78
2023/03/20 01:15:17;;;;;;;0.40;0.40;;;;;;;10.13;100.00;100584.88;4963071;28;20031;-78
2023/03/20 01:17:43;;;;;;;0.40;0.40;;;;;;;10.11;100.00;100585.06;4962767;28;20074;-78
2023/03/20 01:20:21;;;;;;;0.40;0.40;;;;;;;10.12;100.00;100580.53;4979001;28;20038;-78
2023/03/20 01:22:47;;;;;;;0.40;0.40;;;;;;;10.09;100.00;100581.72;4964277;28;20113;-78
2023/03/20 01:25:13;;;;;;;0.40;0.40;;;;;;;10.07;100.00;100575.69;4978576;28;20057;-79
2023/03/20 01:27:38;;;;;;;0.40;0.40;;;;;;;10.09;100.00;100584.41;4996067;28;20035;-78
2023/03/20 01:30:21;;;;;;;0.32;0.32;;;;;;;10.08;100.00;100572.00;4994409;28;20125;-79
2023/03/20 01:32:47;;;;;;;0.40;0.40;;;;;;;10.06;100.00;100571.31;4964408;28;20473;-78
2023/03/20 01:35:15;;;;;;;0.40;0.40;;;;;;;10.07;100.00;100575.69;4994312;28;20046;-79
2023/03/20 01:37:41;;;;;;;0.40;0.40;;;;;;;10.06;100.00;100565.13;4994989;28;20117;-78
2023/03/20 01:40:26;;;;;;;0.40;0.40;;;;;;;10.07;100.00;100575.69;4962400;28;20166;-79
2023/03/20 01:42:52;;;;;;;0.40;0.40;;;;;;;10.05;100.00;100572.31;4962745;28;20054;-78
2023/03/20 01:45:21;;;;;;;0.47;0.47;;;;;;;10.04;100.00;100559.91;4995829;28;20362;-78
2023/03/20 01:47:47;;;;;;;0.40;0.40;;;;;;;10.04;100.00;100562.59;4978040;28;20066;-79
2023/03/20 01:50:26;;;;;;;0.40;0.40;;;;;;;10.06;100.00;100562.44;4994805;28;20074;-79
2023/03/20 01:53:03;;;;;;;0.40;0.40;;;;;;;10.05;100.00;100556.22;4978287;28;20030;-78
2023/03/20 01:55:29;;;;;;;0.40;0.40;;;;;;;10.03;100.00;100546.66;4977848;28;20128;-78
2023/03/20 01:57:56;;;;;;;0.40;0.40;;;;;;;10.02;100.00;100545.00;4994751;28;20045;-78
2023/03/20 02:00:22;;;;;;;0.40;0.40;;;;;;;10.01;100.00;100548.69;4962584;28;20046;-79
2023/03/20 02:02:48;;;;;;;0.40;0.40;;;;;;;9.96;100.00;100533.09;4961776;28;20027;-79
2023/03/20 02:05:17;;;;;;;0.40;0.40;;;;;;;10.00;100.00;100542.50;4994720;28;20119;-78
2023/03/20 02:07:46;;;;;;;0.47;0.47;;;;;;;9.93;100.00;100522.72;4962022;28;20572;-78
2023/03/20 02:10:14;;;;;;;0.35;0.35;;;;;;;9.98;100.00;100536.47;4994547;28;20026;-78
2023/03/20 02:12:40;;;;;;;0.40;0.40;;;;;;;10.00;100.00;100528.22;4994194;28;20022;-78
2023/03/20 02:15:06;;;;;;;0.40;0.40;;;;;;;9.97;100.00;100529.41;4961351;28;20038;-78
2023/03/20 02:17:32;;;;;;;0.30;0.30;;;;;;;9.97;100.00;100532.09;4977152;28;20512;-79
2023/03/20 02:20:16;;;;;;;0.40;0.40;;;;;;;9.97;100.00;100529.41;4946234;28;20031;-79
2023/03/20 02:23:28;;;;;;;0.47;0.47;;;;;;;9.97;100.00;100534.78;4995050;28;20022;-79
2023/03/20 02:25:56;;;;;;;;;;;;;;;9.98;100.00;100533.78;4935543;29;20039;-78
2023/03/20 02:28:36;;;;;;;0.40;0.40;;;;;;;9.99;100.00;100527.38;4935243;29;19966;-78
2023/03/20 02:31:20;;;;;;;0.40;0.40;;;;;;;9.99;100.00;100521.19;4968215;28;20428;-78
2023/03/20 02:34:23;;;;;;;0.50;0.50;;;;;;;9.99;100.00;100522.00;4994133;28;20041;-78
2023/03/20 02:36:52;;;;;;;0.43;0.43;;;;;;;9.96;100.00;100519.69;4992733;28;20053;-78
2023/03/20 02:39:23;;;;;;;0.40;0.40;;;;;;;9.99;100.00;100524.69;4993685;28;20041;-78
2023/03/20 02:42:11;;;;;;;0.40;0.40;;;;;;;9.99;100.00;100521.19;4994002;28;20030;-77
2023/03/20 02:44:46;;;;;;;0.40;0.40;;;;;;;9.98;100.00;100517.66;4977881;28;20473;-78
2023/03/20 02:47:26;;;;;;;0.38;0.38;;;;;;;9.99;100.00;100513.94;4992791;28;20031;-78
2023/03/20 02:50:24;;;;;;;0.40;0.40;;;;;;;9.99;100.00;100519.31;4961804;28;20046;-78
2023/03/20 02:52:59;;;;;;;0.40;0.40;;;;;;;10.00;100.00;100517.47;4974049;28;20514;-79
2023/03/20 02:55:41;;;;;;;0.40;0.40;;;;;;;9.97;100.00;100504.41;4992919;28;20038;-78
2023/03/20 02:58:19;;;;;;;0.40;0.40;;;;;;;9.99;100.00;100508.56;4993873;28;20144;-78
2023/03/20 03:01:15;;;;;;;0.40;0.40;;;;;;;9.99;100.00;100503.19;4977225;28;20477;-81
2023/03/20 03:03:49;;;;;;;0.40;0.40;;;;;;;9.99;100.00;100508.56;4961299;28;20136;-80
2023/03/20 03:06:22;;;;;;;0.30;0.30;;;;;;;9.97;100.00;100510.59;4993236;28;20081;-80
2023/03/20 03:08:49;;;;;;;;;;;;;;;9.95;100.00;100499.22;4976220;28;20041;-78
2023/03/20 03:11:16;;;;;;;0.40;0.40;;;;;;;9.83;100.00;100481.81;4992970;28;19913;-78
2023/03/20 03:13:50;;;;;;;0.40;0.40;;;;;;;9.96;100.00;100498.19;4977412;28;20030;-78
2023/03/20 03:16:26;;;;;;;0.40;0.40;;;;;;;9.98;100.00;100496.16;4992512;28;20049;-78
2023/03/20 03:19:00;;;;;;;0.40;0.40;;;;;;;9.98;100.00;100496.16;4961222;28;20128;-78
2023/03/20 03:21:28;;;;;;;0.43;0.43;;;;;;;10.01;100.00;100490.44;4977329;28;20149;-78
2023/03/20 03:23:55;;;;;;;0.40;0.40;;;;;;;10.02;100.00;100484.03;4960431;28;20457;-77
2023/03/20 03:26:24;;;;;;;0.40;0.40;;;;;;;9.96;100.00;100465.97;4993045;28;20378;-78
2023/03/20 03:28:55;;;;;;;0.40;0.40;;;;;;;10.02;100.00;100472.47;4993180;28;20038;-78
2023/03/20 03:31:23;;;;;;;0.40;0.40;;;;;;;10.08;100.00;100474.41;4976232;28;20128;-80
2023/03/20 03:33:54;;;;;;;0.40;0.40;;;;;;;10.06;100.00;100471.94;4992719;28;20027;-79
2023/03/20 03:36:38;;;;;;;0.40;0.40;;;;;;;10.08;100.00;100477.09;4960804;28;20485;-78
2023/03/20 03:39:39;;;;;;;0.40;0.40;;;;;;;10.08;100.00;100469.91;4993308;28;20034;-78
2023/03/20 03:42:22;;;;;;;0.40;0.40;;;;;;;10.06;100.00;100455.00;4987330;28;20054;-78
2023/03/20 03:44:59;;;;;;;0.40;0.40;;;;;;;10.07;100.00;100445.91;4992738;28;20034;-79
2023/03/20 03:47:34;;;;;;;0.40;0.40;;;;;;;10.10;100.00;100454.41;4976508;28;20030;-78
2023/03/20 03:50:12;;;;;;;0.40;0.40;;;;;;;10.03;100.00;100439.19;4977090;28;20428;-79
2023/03/20 03:52:39;;;;;;;0.40;0.40;;;;;;;10.02;100.00;100429.50;4992292;28;20504;-79
2023/03/20 03:55:13;;;;;;;0.40;0.40;;;;;;;10.13;100.00;100446.03;4991891;28;20069;-78
2023/03/20 03:57:43;;;;;;;0.40;0.40;;;;;;;10.14;100.00;100449.53;4976786;28;20420;-79
2023/03/20 04:00:11;;;;;;;0.40;0.40;;;;;;;10.10;100.00;100446.38;4993047;28;20045;-78
2023/03/20 04:02:37;;;;;;;0.40;0.40;;;;;;;10.12;100.00;100443.50;4991967;28;20028;-78
2023/03/20 04:05:04;;;;;;;0.40;0.40;;;;;;;10.11;100.00;100440.00;4976249;28;20046;-81
2023/03/20 04:07:32;;;;;;;0.45;0.45;;;;;;;10.11;100.00;100436.47;4976313;28;20038;-80
2023/03/20 04:09:58;;;;;;;0.40;0.40;;;;;;;10.16;100.00;100441.28;4960334;28;20041;-78
2023/03/20 04:12:35;;;;;;;0.40;0.40;;;;;;;10.15;100.00;100436.94;4976822;28;20400;-78
2023/03/20 04:15:01;;;;;;;0.40;0.40;;;;;;;10.13;100.00;100424.53;4959605;28;20034;-78
2023/03/20 04:17:26;;;;;;;0.40;0.40;;;;;;;10.17;100.00;100424.16;4992526;28;20370;-78
2023/03/20 04:19:55;;;;;;;0.40;0.40;;;;;;;10.13;100.00;100415.63;4991996;28;20026;-78
2023/03/20 04:22:23;;;;;;;0.40;0.40;;;;;;;10.16;100.00;100411.72;4992456;28;20363;-78
2023/03/20 04:24:51;;;;;;;0.40;0.40;;;;;;;10.19;100.00;100419.44;4975921;28;20031;-78
2023/03/20 04:27:17;;;;;;;0.38;0.38;;;;;;;10.18;100.00;100412.41;4992659;28;20129;-78
2023/03/20 04:29:43;;;;;;;0.40;0.40;;;;;;;10.16;100.00;100406.34;4992566;28;20038;-77
2023/03/20 04:32:09;;;;;;;0.40;0.40;;;;;;;10.16;100.00;100404.53;4976382;28;20362;-78
2023/03/20 04:34:35;;;;;;;0.32;0.32;;;;;;;10.19;100.00;100406.00;4992517;28;20031;-77
2023/03/20 04:37:01;;;;;;;0.40;0.40;;;;;;;10.19;100.00;100404.16;4960115;28;20158;-78
2023/03/20 04:39:27;;;;;;;0.40;0.40;;;;;;;10.20;100.00;100395.06;4960244;28;20038;-80
2023/03/20 04:41:52;;;;;;;0.40;0.40;;;;;;;10.23;100.00;100388.50;4980152;28;20472;-80
2023/03/20 04:44:18;;;;;;;0.40;0.40;;;;;;;10.23;100.00;100392.03;4995433;28;20038;-79
2023/03/20 04:46:44;;;;;;;0.40;0.40;;;;;;;10.27;100.00;100395.19;4979882;28;20424;-79
2023/03/20 04:49:12;;;;;;;0.38;0.38;;;;;;;10.26;100.00;100391.66;4979748;28;20022;-79
2023/03/20 04:51:38;;;;;;;0.40;0.40;;;;;;;10.26;100.00;100390.81;4979871;28;20053;-79
2023/03/20 04:54:04;;;;;;;0.30;0.30;;;;;;;10.24;100.00;100376.72;4995426;28;20026;-79
2023/03/20 04:56:32;;;;;;;0.40;0.40;;;;;;;10.23;100.00;100367.00;4995688;28;20026;-79
2023/03/20 04:58:58;;;;;;;0.32;0.32;;;;;;;10.31;100.00;100375.03;4979666;28;20034;-79
2023/03/20 05:01:23;;;;;;;0.43;0.43;;;;;;;10.32;100.00;100368.66;4994640;28;20041;-80
2023/03/20 05:03:49;;;;;;;0.40;0.40;;;;;;;10.35;100.00;100373.66;4963605;28;20461;-79
2023/03/20 05:06:15;;;;;;;0.40;0.40;;;;;;;10.36;100.00;100369.09;4979101;28;20056;-81
2023/03/20 05:08:43;;;;;;;0.40;0.40;;;;;;;10.31;100.00;100357.03;4995061;28;20046;-79
2023/03/20 05:11:09;;;;;;;0.40;0.40;;;;;;;10.37;100.00;100371.59;4979450;28;20121;-78
2023/03/20 05:13:35;;;;;;;0.40;0.40;;;;;;;10.33;100.00;100364.94;4978722;28;20225;-79
2023/03/20 05:16:00;;;;;;;0.40;0.40;;;;;;;10.36;100.00;100369.94;4994792;28;20034;-79
2023/03/20 05:18:26;;;;;;;0.40;0.40;;;;;;;10.38;100.00;100372.44;4994701;28;20440;-79
2023/03/20 05:20:52;;;;;;;0.40;0.40;;;;;;;10.37;100.00;100376.97;4995419;28;20031;-79
2023/03/20 05:23:20;;;;;;;0.40;0.40;;;;;;;10.41;100.00;100383.66;4994474;28;20031;-78
2023/03/20 05:25:46;;;;;;;0.40;0.40;;;;;;;10.42;100.00;100379.94;4962690;28;20034;-79
2023/03/20 05:28:11;;;;;;;0.40;0.40;;;;;;;10.31;100.00;100359.72;4996485;28;20037;-79
2023/03/20 05:30:37;;;;;;;0.40;0.40;;;;;;;10.41;100.00;100382.81;4995638;28;20065;-78
2023/03/20 05:33:03;;;;;;;0.40;0.40;;;;;;;10.36;100.00;100380.69;4994864;28;20384;-79
2023/03/20 05:35:28;;;;;;;0.40;0.40;;;;;;;10.31;100.00;100367.78;4962596;28;20034;-79
2023/03/20 05:37:54;;;;;;;0.40;0.40;;;;;;;10.37;100.00;100381.50;4994126;28;20039;-78
2023/03/20 05:40:23;;;;;;;0.40;0.40;;;;;;;10.38;100.00;100380.50;4978903;28;20031;-78
2023/03/20 05:42:51;;;;;;;0.30;0.30;;;;;;;10.36;100.00;100375.31;4994242;28;20061;-80
2023/03/20 05:45:18;;;;;;;0.40;0.40;;;;;;;10.37;100.00;100382.34;4993816;28;20030;-79
2023/03/20 05:47:44;;;;;;;0.40;0.40;;;;;;;10.33;100.00;100368.44;4960210;28;20504;-78
2023/03/20 05:50:11;;;;;;;0.40;0.40;;;;;;;10.38;100.00;100380.50;4976623;28;20038;-78
2023/03/20 05:52:37;;;;;;;0.40;0.40;;;;;;;10.36;100.00;100369.94;4991390;28;20046;-78
2023/03/20 05:55:03;;;;;;;0.40;0.40;;;;;;;10.38;100.00;100378.66;4992220;28;20038;-80
2023/03/20 05:57:29;;;;;;;0.40;0.40;;;;;;;10.39;100.00;100371.41;4992127;28;20026;-79
2023/03/20 05:59:54;;;;;;;0.43;0.43;;;;;;;10.38;100.00;100367.91;4976125;28;20045;-78
2023/03/20 06:02:20;;;;;;;0.40;0.40;;;;;;;10.34;100.00;100358.53;4993401;28;20488;-78
2023/03/20 06:04:46;;;;;;;0.30;0.30;;;;;;;10.36;100.00;100369.09;4994639;28;20081;-78
2023/03/20 06:07:11;;;;;;;0.40;0.40;;;;;;;10.33;100.00;100364.94;4978330;28;20054;-79
2023/03/20 06:09:37;;;;;;;0.40;0.40;;;;;;;10.31;100.00;100359.72;4977971;28;20061;-79
2023/03/20 06:12:03;;;;;;;0.40;0.40;;;;;;;10.31;100.00;100356.22;4995475;28;20031;-78
2023/03/20 06:14:28;;;;;;;0.40;0.40;;;;;;;10.29;100.00;100360.91;4994023;28;20034;-77
2023/03/20 06:16:55;;;;;;;0.43;0.43;;;;;;;10.29;100.00;100364.47;4994337;28;20033;-78
2023/03/20 06:19:21;;;;;;;0.40;0.40;;;;;;;10.28;100.00;100370.00;4994376;28;20058;-78
2023/03/20 06:21:48;;;;;;;0.40;0.40;;;;;;;10.27;100.00;100369.19;4962211;28;20038;-78
2023/03/20 06:24:14;;;;;;;0.50;0.50;;;;;;;10.27;100.00;100377.25;4962187;28;20038;-78
2023/03/20 06:26:40;;;;;;;0.40;0.40;;;;;;;10.28;100.00;100375.38;4978718;28;20034;-79
2023/03/20 06:29:06;;;;;;;0.40;0.40;;;;;;;10.26;100.00;100374.69;4994079;28;20499;-78
2023/03/20 06:31:31;;;;;;;0.40;0.40;;;;;;;10.31;100.00;100394.66;4978151;28;20388;-78
2023/03/20 06:33:57;;;;;;;0.40;0.40;;;;;;;10.33;100.00;100399.88;4994788;28;20075;-78
2023/03/20 06:36:23;;;;;;;0.45;0.45;;;;;;;10.33;100.00;100397.19;4995002;28;20061;-78
2023/03/20 06:38:48;;;;;;;0.30;0.30;;;;;;;10.33;100.00;100391.81;4993982;28;20473;-78
2023/03/20 06:41:14;;;;;;;0.40;0.40;;;;;;;10.37;100.00;100403.84;4977773;28;20104;-78
2023/03/20 06:43:41;;;;;;;0.40;0.40;;;;;;;10.21;100.00;100380.63;4993607;28;20038;-78
2023/03/20 06:46:07;;;;;;;0.40;0.40;;;;;;;10.34;100.00;100398.84;4977609;28;20030;-78
2023/03/20 06:48:33;;;;;;;0.30;0.30;;;;;;;10.35;100.00;100400.53;4977543;28;20039;-78
2023/03/20 06:50:59;;;;;;;0.40;0.40;;;;;;;10.37;100.00;100403.84;4977495;28;20034;-79
2023/03/20 06:53:26;;;;;;;0.40;0.40;;;;;;;10.34;100.00;100399.66;4977407;28;20031;-78
2023/03/20 06:55:51;;;;;;;0.40;0.40;;;;;;;10.41;100.00;100397.09;4994898;28;20030;-78
2023/03/20 06:58:17;;;;;;;0.30;0.30;;;;;;;10.38;100.00;100396.63;4977622;28;20165;-78
2023/03/20 07:00:43;;;;;;;0.30;0.30;;;;;;;10.42;100.00;100406.81;4993539;28;20026;-77
2023/03/20 07:03:10;;;;;;;0.40;0.40;;;;;;;10.42;100.00;100404.13;4993250;28;20108;-78
2023/03/20 07:05:37;;;;;;;0.40;0.40;;;;;;;10.46;100.00;100407.28;4994455;28;20045;-79
2023/03/20 07:08:03;;;;;;;0.40;0.40;;;;;;;10.45;100.00;100395.72;4993629;28;20030;-78
2023/03/20 07:10:29;;;;;;;0.40;0.40;;;;;;;10.43;100.00;100400.44;4993028;28;20076;-78
2023/03/20 07:12:55;;;;;;;0.40;0.40;;;;;;;10.43;100.00;100392.38;4977260;28;20027;-80
2023/03/20 07:15:21;;;;;;;0.40;0.40;;;;;;;10.51;100.00;100397.66;4993226;28;20034;-79
2023/03/20 07:17:47;;;;;;;0.40;0.40;;;;;;;10.53;100.00;100392.09;4977228;28;20030;-78
2023/03/20 07:20:13;;;;;;;0.40;0.40;;;;;;;10.57;100.00;100383.47;4994515;28;20117;-78
2023/03/20 07:22:40;;;;;;;0.40;0.40;;;;;;;10.65;100.00;100392.47;4977150;28;20030;-78
2023/03/20 07:25:08;;;;;;;0.40;0.40;;;;;;;10.68;100.00;100384.88;4977228;28;20034;-79
2023/03/20 07:27:34;;;;;;;0.47;0.47;;;;;;;10.71;100.00;100389.88;4992996;28;20039;-78
2023/03/20 07:30:01;;;;;;;0.40;0.40;;;;;;;10.75;100.00;100379.59;4993183;28;20037;-78
2023/03/20 07:32:30;;;;;;;0.40;0.40;;;;;;;10.76;100.00;100368.63;4977476;28;20038;-78
2023/03/20 07:34:55;;;;;;;0.40;0.40;;;;;;;10.91;100.00;100383.94;4992694;28;20037;-78
2023/03/20 07:37:21;;;;;;;0.40;0.40;;;;;;;10.91;100.00;100390.16;4961008;28;20043;-78
2023/03/20 07:39:47;;;;;;;0.40;0.40;;;;;;;10.93;100.00;100388.09;4976852;28;20128;-78
2023/03/20 07:42:12;;;;;;;0.40;0.40;;;;;;;10.99;100.00;100390.03;4992949;28;20026;-77
2023/03/20 07:44:38;;;;;;;0.32;0.32;;;;;;;11.07;100.00;100391.78;4992949;28;20034;-79
2023/03/20 07:47:05;;;;;;;0.40;0.40;;;;;;;11.12;100.00;100399.31;4992656;28;20105;-77
2023/03/20 07:49:31;;;;;;;0.30;0.30;;;;;;;11.13;100.00;100396.41;4992770;28;20031;-77
2023/03/20 07:51:56;;;;;;;0.50;0.50;;;;;;;11.10;100.00;100387.91;4992753;28;20034;-78
2023/03/20 07:54:22;;;;;;;0.40;0.40;;;;;;;11.16;100.00;100403.28;4992835;28;20038;-77
2023/03/20 07:56:49;;;;;;;0.40;0.40;;;;;;;11.02;100.00;100380.75;4992878;28;20035;-77
2023/03/20 07:59:16;;;;;;;0.40;0.40;;;;;;;11.16;100.00;100387.13;4992420;28;20481;-77
2023/03/20 08:01:41;;;;;;;0.40;0.40;;;;;;;11.24;100.00;100389.72;4976675;28;20133;-78
2023/03/20 08:04:07;;;;;;;0.57;0.57;;;;;;;11.40;100.00;100399.41;4992822;28;20115;-77
2023/03/20 08:06:33;;;;;;;0.40;0.40;;;;;;;11.44;100.00;100403.41;4992688;28;20034;-79
2023/03/20 08:08:58;;;;;;;0.82;0.75;;;;;;;11.41;100.00;100396.53;4992732;28;20030;-78
2023/03/20 08:11:24;;;;;;;0.77;0.77;;;;;;;11.47;100.00;100400.34;4993586;28;20023;-79
2023/03/20 08:13:50;;;;;;;0.40;0.40;;;;;;;11.49;100.00;100409.06;4976456;28;20440;-77
2023/03/20 08:16:15;;;;;;;2.78;1.15;;;;;;;11.53;100.00;100410.34;4995726;28;20039;-78
2023/03/20 08:18:41;;;;;;;2.17;1.67;;;;;;;11.60;100.00;100395.09;4980048;28;20065;-79
2023/03/20 08:21:08;;;;;;;0.50;0.50;;;;;;;11.72;100.00;100403.47;4980180;28;20380;-80
2023/03/20 08:23:33;;;;;;;3.13;0.88;;;;;;;11.76;100.00;100410.16;4980334;28;20072;-79
2023/03/20 08:25:59;;;;;;;1.38;0.73;;;;;;;11.84;100.00;100406.50;4996411;28;20031;-77
2023/03/20 08:28:25;;;;;;;0.60;0.60;;;;;;;11.87;100.00;100404.28;4996384;28;20034;-78
2023/03/20 08:30:53;;;;;;;0.60;0.60;;;;;;;11.92;100.00;100413.66;4964118;28;20121;-77
2023/03/20 08:33:19;;;;;;;0.60;0.60;;;;;;;11.91;100.00;100402.06;4996261;28;20046;-79
2023/03/20 08:35:58;;;;;;;2.88;0.90;;;;;;;11.83;100.00;100397.59;4995877;28;20034;-79
2023/03/20 08:38:23;;;;;;;2.00;0.88;;;;;;;11.82;100.00;100414.78;4948404;28;20035;-79
2023/03/20 08:40:49;;;;;;;0.50;0.50;;;;;;;11.71;100.00;100395.59;4980131;28;20133;-79
2023/03/20 08:43:15;;;;;;;0.73;0.70;;;;;;;11.84;100.00;100418.13;4996097;28;20030;-77
2023/03/20 08:45:40;;;;;;;0.98;0.90;;;;;;;11.96;100.00;100420.31;4996044;28;20030;-79
2023/03/20 08:48:06;;;;;;;2.38;1.00;;;;;;;12.06;100.00;100405.50;4979512;28;20122;-79
2023/03/20 08:50:31;;;;;;;0.55;0.55;;;;;;;12.19;100.00;100412.84;4995857;28;20033;-77
2023/03/20 08:52:57;;;;;;;0.60;0.60;;;;;;;12.32;100.00;100395.97;4979729;28;20022;-77
2023/03/20 08:55:23;;;;;;;1.17;0.98;;;;;;;12.37;100.00;100389.97;4979411;28;20097;-77
2023/03/20 08:57:48;;;;;;;6.95;1.77;;;;;;;12.58;100.00;100405.28;4995725;28;20030;-78
2023/03/20 09:00:15;;;;;;;0.90;0.82;;;;;;;12.64;100.00;100391.81;4995897;28;20113;-77
2023/03/20 09:02:42;;;;;;;11.80;4.30;;;;;;;12.71;100.00;100390.00;4978679;28;20069;-79
2023/03/20 09:05:08;;;;;;;15.63;6.50;;;;;;;12.86;100.00;100386.31;4979056;28;20038;-77
2023/03/20 09:07:34;;;;;;;10.63;5.22;;;;;;;13.00;100.00;100368.34;4978950;28;20034;-77
2023/03/20 09:10:00;;;;;;;8.85;3.42;;;;;;;13.19;100.00;100367.59;4978673;28;20037;-77
2023/03/20 09:12:26;;;;;;;14.57;6.15;;;;;;;13.35;100.00;100372.66;4995061;28;20038;-77
2023/03/20 09:14:53;;;;;;;23.02;10.10;;;;;;;13.42;100.00;100361.88;4994804;28;20035;-76
2023/03/20 09:17:19;;;;;;;11.70;4.93;;;;;;;13.58;100.00;100374.16;4994608;28;20465;-77
2023/03/20 09:19:44;;;;;;;11.90;2.58;;;;;;;13.68;100.00;100371.91;4979574;28;20045;-76
2023/03/20 09:22:16;;;;;;;4.45;2.20;;;;;;;13.71;100.00;100370.66;4995416;28;20457;-77
2023/03/20 09:24:43;;;;;;;7.63;2.85;;;;;;;13.83;100.00;100374.41;4995014;28;20034;-77
2023/03/20 09:27:09;;;;;;;5.43;2.03;;;;;;;14.02;100.00;100367.34;4994794;28;20092;-77
2023/03/20 09:29:34;;;;;;;3.42;1.83;;;;;;;14.22;100.00;100373.56;4979229;28;20469;-77
2023/03/20 09:32:01;;;;;;;5.13;1.70;;;;;;;14.44;100.00;100367.94;4994858;28;20469;-78
2023/03/20 09:34:28;;;;;;;8.25;1.58;;;;;;;14.47;100.00;100368.34;4994902;28;20035;-77
2023/03/20 09:36:53;;;;;;;13.00;2.90;;;;;;;14.48;100.00;100372.72;4994756;28;20084;-78
2023/03/20 09:39:19;;;;;;;6.05;1.70;;;;;;;14.45;100.00;100373.16;4994955;28;20441;-77
2023/03/20 09:41:49;;;;;;;9.43;2.15;;;;;;;14.49;100.00;100366.25;4978084;28;20041;-76
2023/03/20 09:44:34;;;;;;;4.63;1.70;;;;;;;14.54;100.00;100373.78;4962675;28;20030;-76
2023/03/20 09:47:16;;;;;;;4.88;1.63;;;;;;;14.51;100.00;100372.28;4997655;28;20142;-77
2023/03/20 09:50:00;;;;;;;9.02;2.05;;;;;;;14.46;100.00;100372.09;4961385;28;20053;-79
2023/03/20 09:52:33;;;;;;;9.73;2.40;;;;;;;14.50;100.00;100370.63;4993233;28;20034;-78
2023/03/20 09:55:03;;;;;;;13.82;3.85;;;;;;;14.66;100.00;100373.94;4962128;28;20466;-77
2023/03/20 09:57:35;;;;;;;6.47;2.83;;;;;;;14.91;100.00;100374.09;4962143;28;20053;-78
2023/03/20 10:00:06;;;;;;;7.35;2.97;;;;;;;15.13;100.00;100361.91;4962570;28;20042;-77
2023/03/20 10:02:36;;;;;;;8.25;1.70;;;;;;;15.30;100.00;100358.72;4994640;28;20485;-79
2023/03/20 10:05:04;;;;;;;3.95;1.55;;;;;;;15.52;100.00;100367.34;4978404;28;20385;-76
2023/03/20 10:07:29;;;;;;;12.30;3.70;;;;;;;15.65;100.00;100361.84;4977942;28;20076;-77
2023/03/20 10:09:55;;;;;;;7.78;2.00;;;;;;;15.87;100.00;100369.63;4994113;28;20058;-79
2023/03/20 10:12:39;;;;;;;7.70;2.30;;;;;;;15.85;100.00;100358.16;4978220;28;20030;-78
2023/03/20 10:15:07;;;;;;;8.48;2.47;;;;;;;15.80;100.00;100365.09;4977908;28;20130;-78
2023/03/20 10:17:42;;;;;;;6.55;1.80;;;;;;;15.77;100.00;100364.69;4993879;28;20038;-79
2023/03/20 10:20:34;;;;;;;8.93;2.15;;;;;;;15.81;100.00;100360.50;4994271;28;20077;-77
2023/03/20 10:23:15;;;;;;;12.77;2.20;;;;;;;15.91;100.00;100354.59;4994235;28;20030;-79
2023/03/20 10:25:44;;;;;;;6.57;1.67;;;;;;;15.94;100.00;100340.59;4993636;28;20042;-79
2023/03/20 10:28:30;;;;;;;5.90;1.80;;;;;;;15.99;100.00;100329.91;4977943;28;20441;-79
2023/03/20 10:31:27;;;;;;;9.18;1.98;;;;;;;16.20;100.00;100324.09;4994991;28;20030;-77
2023/03/20 10:34:14;;;;;;;8.77;2.15;;;;;;;16.35;100.00;100322.88;4993801;28;20133;-78
2023/03/20 10:36:55;;;;;;;3.00;1.30;;;;;;;16.24;100.00;100321.75;4977458;28;20388;-77
2023/03/20 10:39:48;;;;;;;4.28;1.80;;;;;;;15.99;100.00;100322.59;4994385;28;20473;-79
2023/03/20 10:42:18;;;;;;;6.13;1.70;;;;;;;15.86;100.00;100316.47;4977656;28;20030;-79
2023/03/20 10:45:01;;;;;;;7.90;2.10;;;;;;;15.82;100.00;100316.91;4993410;28;20030;-77
2023/03/20 10:47:29;;;;;;;4.22;1.33;;;;;;;16.03;100.00;100323.81;4961610;28;20034;-79
2023/03/20 10:50:04;;;;;;;5.88;1.80;;;;;;;16.43;100.00;100330.72;4993243;28;20038;-79
2023/03/20 10:52:35;;;;;;;8.55;2.42;;;;;;;16.76;100.00;100330.38;4961130;28;20030;-79
2023/03/20 10:55:07;;;;;;;10.57;3.10;;;;;;;17.32;100.00;100323.00;4962025;28;20038;-79
2023/03/20 10:57:36;;;;;;;6.70;2.42;;;;;;;18.53;100.00;100326.25;4977379;28;20039;-80
2023/03/20 11:00:03;;;;;;;9.38;2.20;;;;;;;20.94;86.93;100320.28;4977401;28;20104;-77
2023/03/20 11:02:30;;;;;;;8.43;3.75;;;;;;;23.19;80.26;100327.50;4961261;28;20038;-78
2023/03/20 11:05:01;;;;;;;3.35;1.85;;;;;;;23.62;71.98;100332.78;4961328;28;20120;-78
2023/03/20 11:07:31;;;;;;;5.72;2.95;;;;;;;21.04;81.46;100323.16;4993090;28;20037;-78
2023/03/20 11:10:06;;;;;;;3.92;1.52;;;;;;;19.61;90.49;100331.09;4977159;28;20034;-77
2023/03/20 11:12:35;;;;;;;4.30;1.40;;;;;;;18.67;92.89;100318.63;4993392;28;20030;-80
2023/03/20 11:15:15;;;;;;;4.70;1.55;;;;;;;17.97;96.23;100327.69;4992832;28;20484;-79
2023/03/20 11:17:40;;;;;;;7.32;1.75;;;;;;;17.53;99.60;100317.03;4976606;28;20367;-79
2023/03/20 11:20:07;;;;;;;6.28;1.67;;;;;;;17.44;100.00;100323.88;4977226;28;20057;-76
2023/03/20 11:22:33;;;;;;;5.00;1.50;;;;;;;17.15;100.00;100330.97;4993081;28;20041;-78
2023/03/20 11:25:02;;;;;;;7.45;1.45;;;;;;;16.54;100.00;100321.88;4960978;28;20042;-78
2023/03/20 11:27:32;;;;;;;6.47;1.70;;;;;;;16.07;100.00;100321.50;4976539;28;20034;-79
2023/03/20 11:30:04;;;;;;;5.22;1.15;;;;;;;15.45;100.00;100305.06;4976804;28;20039;-79
2023/03/20 11:32:41;;;;;;;6.80;2.45;;;;;;;15.15;100.00;100310.25;4993178;28;20117;-77